createdAt,value
2018-12-04T00:00:06.988Z,8.50
2018-12-04T00:02:35.556Z,8.60
2018-12-04T00:05:04.835Z,8.60
2018-12-04T00:07:33.415Z,8.60
2018-12-04T00:10:02.619Z,8.60
2018-12-04T00:12:31.246Z,8.60
2018-12-04T00:14:59.844Z,8.60
2018-12-04T00:17:28.416Z,8.80
2018-12-04T00:19:56.998Z,8.80
2018-12-04T00:22:25.555Z,8.80
2018-12-04T00:24:54.151Z,8.90
2018-12-04T00:27:22.776Z,9.00
2018-12-04T00:29:51.375Z,9.00
2018-12-04T00:32:19.971Z,9.00
2018-12-04T00:34:48.521Z,9.10
2018-12-04T00:37:17.107Z,9.10
2018-12-04T00:39:45.721Z,9.10
2018-12-04T00:42:14.413Z,9.10
2018-12-04T00:44:43.013Z,9.20
2018-12-04T00:47:11.592Z,9.20
2018-12-04T00:49:40.201Z,9.10
2018-12-04T00:52:08.767Z,9.10
2018-12-04T00:54:37.384Z,9.10
2018-12-04T00:57:12.568Z,9.00
2018-12-04T00:59:41.172Z,8.90
2018-12-04T01:02:09.772Z,8.80
2018-12-04T01:04:38.339Z,8.80
2018-12-04T01:07:07.192Z,8.80
2018-12-04T01:09:35.763Z,8.80
2018-12-04T01:12:04.504Z,8.70
2018-12-04T01:14:33.162Z,8.80
2018-12-04T01:17:02.488Z,8.80
2018-12-04T01:19:31.091Z,8.80
2018-12-04T01:21:59.669Z,8.80
2018-12-04T01:24:28.276Z,8.90
2018-12-04T01:26:56.856Z,8.90
2018-12-04T01:29:25.483Z,8.90
2018-12-04T01:31:54.084Z,9.00
2018-12-04T01:34:22.691Z,8.90
2018-12-04T01:36:51.251Z,9.00
2018-12-04T01:39:19.852Z,9.00
2018-12-04T01:41:48.474Z,9.00
2018-12-04T01:44:17.055Z,9.00
2018-12-04T01:46:45.695Z,9.10
2018-12-04T01:49:14.299Z,9.10
2018-12-04T01:51:42.914Z,9.10
2018-12-04T01:54:11.503Z,9.00
2018-12-04T01:56:40.102Z,9.10
2018-12-04T01:59:08.951Z,9.10
2018-12-04T02:01:37.631Z,9.00
2018-12-04T02:04:06.364Z,9.00
2018-12-04T02:06:35.791Z,9.00
2018-12-04T02:09:06.755Z,9.00
2018-12-04T02:11:35.405Z,8.90
2018-12-04T02:14:04.114Z,8.90
2018-12-04T02:16:32.760Z,8.90
2018-12-04T02:19:01.347Z,8.90
2018-12-04T02:21:29.927Z,8.90
2018-12-04T02:23:58.547Z,8.90
2018-12-04T02:26:27.130Z,8.90
2018-12-04T02:28:55.750Z,8.90
2018-12-04T02:31:24.361Z,8.80
2018-12-04T02:33:52.921Z,8.80
2018-12-04T02:36:21.512Z,8.90
2018-12-04T02:38:50.082Z,8.80
2018-12-04T02:41:18.732Z,8.90
2018-12-04T02:43:47.303Z,8.80
2018-12-04T02:46:15.884Z,8.80
2018-12-04T02:48:44.525Z,8.80
2018-12-04T02:51:13.095Z,8.80
2018-12-04T02:53:41.661Z,8.80
2018-12-04T02:56:10.264Z,8.80
2018-12-04T02:58:38.949Z,8.60
2018-12-04T03:01:07.579Z,8.80
2018-12-04T03:03:36.161Z,8.70
2018-12-04T03:06:04.764Z,8.80
2018-12-04T03:08:33.366Z,8.70
2018-12-04T03:11:02.464Z,8.70
2018-12-04T03:13:31.016Z,8.80
2018-12-04T03:15:59.635Z,8.80
2018-12-04T03:18:28.216Z,8.80
2018-12-04T03:20:56.815Z,8.90
2018-12-04T03:23:25.390Z,8.90
2018-12-04T03:25:53.989Z,8.80
2018-12-04T03:28:22.547Z,8.70
2018-12-04T03:30:51.304Z,8.80
2018-12-04T03:33:30.979Z,8.70
2018-12-04T03:35:59.707Z,8.90
2018-12-04T03:38:28.268Z,8.90
2018-12-04T03:40:56.851Z,8.90
2018-12-04T03:43:25.427Z,8.90
2018-12-04T03:45:54.032Z,8.90
2018-12-04T03:48:22.845Z,8.90
2018-12-04T03:50:51.438Z,8.90
2018-12-04T03:53:20.040Z,8.90
2018-12-04T03:55:48.758Z,8.90
2018-12-04T03:58:17.335Z,8.90
2018-12-04T04:00:45.943Z,8.90
2018-12-04T04:03:14.543Z,9.00
2018-12-04T04:05:43.152Z,8.90
2018-12-04T04:08:11.753Z,8.90
2018-12-04T04:10:42.172Z,8.90
2018-12-04T04:13:10.792Z,8.90
2018-12-04T04:15:39.517Z,8.90
2018-12-04T04:18:08.184Z,8.90
2018-12-04T04:20:36.772Z,9.00
2018-12-04T04:23:05.350Z,9.00
2018-12-04T04:25:34.071Z,8.90
2018-12-04T04:28:02.691Z,8.90
2018-12-04T04:30:31.287Z,8.90
2018-12-04T04:32:59.852Z,9.00
2018-12-04T04:35:28.460Z,9.00
2018-12-04T04:37:57.200Z,9.00
2018-12-04T04:40:25.839Z,8.90
2018-12-04T04:42:54.448Z,8.90
2018-12-04T04:45:23.056Z,8.90
2018-12-04T04:47:51.749Z,8.90
2018-12-04T04:50:20.353Z,9.00
2018-12-04T04:52:48.969Z,8.90
2018-12-04T04:55:17.580Z,9.10
2018-12-04T04:57:46.157Z,9.10
2018-12-04T05:00:16.664Z,9.10
2018-12-04T05:02:45.220Z,9.10
2018-12-04T05:05:13.963Z,9.00
2018-12-04T05:07:42.535Z,9.00
2018-12-04T05:10:11.131Z,9.10
2018-12-04T05:12:39.756Z,9.10
2018-12-04T05:15:08.879Z,9.00
2018-12-04T05:17:37.464Z,9.10
2018-12-04T05:20:08.112Z,9.00
2018-12-04T05:22:36.864Z,9.00
2018-12-04T05:25:06.594Z,9.00
2018-12-04T05:27:35.164Z,9.00
2018-12-04T05:30:04.407Z,9.10
2018-12-04T05:32:32.988Z,9.00
2018-12-04T05:35:01.664Z,9.00
2018-12-04T05:37:30.275Z,9.00
2018-12-04T05:39:58.860Z,9.00
2018-12-04T05:42:27.444Z,9.00
2018-12-04T05:44:56.044Z,9.00
2018-12-04T05:47:24.648Z,9.10
2018-12-04T05:50:01.230Z,9.10
2018-12-04T05:52:29.968Z,9.10
2018-12-04T05:54:58.554Z,9.10
2018-12-04T05:57:27.159Z,9.00
2018-12-04T05:59:55.725Z,9.00
2018-12-04T06:02:24.337Z,9.00
2018-12-04T06:04:52.937Z,8.90
2018-12-04T06:07:21.595Z,9.00
2018-12-04T06:09:50.194Z,9.00
2018-12-04T06:12:18.795Z,8.90
2018-12-04T06:14:47.366Z,8.90
2018-12-04T06:17:15.979Z,8.90
2018-12-04T06:19:44.543Z,9.10
2018-12-04T06:22:13.120Z,9.00
2018-12-04T06:24:41.744Z,9.00
2018-12-04T06:27:10.327Z,9.00
2018-12-04T06:29:38.923Z,8.90
2018-12-04T06:32:07.512Z,8.90
2018-12-04T06:34:36.085Z,8.80
2018-12-04T06:37:04.711Z,8.90
2018-12-04T06:39:33.280Z,8.90
2018-12-04T06:42:02.076Z,8.80
2018-12-04T06:44:30.668Z,8.80
2018-12-04T06:46:59.254Z,8.80
2018-12-04T06:49:27.886Z,8.90
2018-12-04T06:51:56.500Z,8.90
2018-12-04T06:54:25.101Z,8.90
2018-12-04T06:56:53.718Z,8.80
2018-12-04T06:59:22.287Z,8.80
2018-12-04T07:01:50.898Z,8.80
2018-12-04T07:04:19.457Z,8.70
2018-12-04T07:06:48.062Z,8.70
2018-12-04T07:09:16.690Z,8.60
2018-12-04T07:11:45.291Z,8.60
2018-12-04T07:14:13.861Z,8.70
2018-12-04T07:16:42.490Z,8.60
2018-12-04T07:19:11.080Z,8.60
2018-12-04T07:21:39.695Z,8.60
2018-12-04T07:24:08.284Z,8.50
2018-12-04T07:26:37.076Z,8.40
2018-12-04T07:29:05.644Z,8.20
2018-12-04T07:31:34.256Z,8.10
2018-12-04T07:34:03.271Z,8.00
2018-12-04T07:36:31.843Z,7.90
2018-12-04T07:39:00.412Z,7.90
2018-12-04T07:41:29.031Z,8.00
2018-12-04T07:43:57.600Z,7.90
2018-12-04T07:46:26.215Z,7.80
2018-12-04T07:48:54.796Z,7.80
2018-12-04T07:51:23.451Z,7.80
2018-12-04T07:53:52.027Z,7.80
2018-12-04T07:56:20.620Z,7.80
2018-12-04T07:58:49.236Z,7.80
2018-12-04T08:01:17.823Z,7.90
2018-12-04T08:03:46.384Z,8.00
2018-12-04T08:06:14.987Z,8.10
2018-12-04T08:08:43.592Z,8.00
2018-12-04T08:11:12.393Z,8.00
2018-12-04T08:13:41.007Z,8.10
2018-12-04T08:16:09.591Z,8.10
2018-12-04T08:18:38.191Z,8.10
2018-12-04T08:21:06.765Z,8.10
2018-12-04T08:23:35.380Z,8.10
2018-12-04T08:26:03.963Z,8.10
2018-12-04T08:28:32.565Z,8.10
2018-12-04T08:31:01.173Z,8.10
2018-12-04T08:33:29.793Z,8.10
2018-12-04T08:35:58.363Z,8.10
2018-12-04T08:38:26.987Z,8.20
2018-12-04T08:40:55.570Z,8.20
2018-12-04T08:43:24.184Z,8.20
2018-12-04T08:45:52.764Z,8.20
2018-12-04T08:48:21.360Z,8.30
2018-12-04T08:50:49.943Z,8.30
2018-12-04T08:53:18.519Z,8.30
2018-12-04T08:55:47.164Z,8.30
2018-12-04T08:58:15.754Z,8.30
2018-12-04T09:00:45.704Z,8.30
2018-12-04T09:03:14.295Z,8.30
2018-12-04T09:05:42.892Z,8.30
2018-12-04T09:08:11.481Z,8.30
2018-12-04T09:10:40.104Z,8.30
2018-12-04T09:13:08.792Z,8.20
2018-12-04T09:15:43.838Z,8.00
2018-12-04T09:18:12.446Z,7.60
2018-12-04T09:20:41.140Z,7.50
2018-12-04T09:23:09.823Z,7.40
2018-12-04T09:25:38.566Z,7.30
2018-12-04T09:28:07.344Z,7.30
2018-12-04T09:30:36.008Z,7.30
2018-12-04T09:33:04.659Z,7.30
2018-12-04T09:35:33.230Z,7.30
2018-12-04T09:38:01.825Z,7.30
2018-12-04T09:40:30.404Z,7.20
2018-12-04T09:43:03.965Z,7.10
2018-12-04T09:45:29.588Z,7.00
2018-12-04T09:47:58.463Z,6.90
2018-12-04T09:50:27.079Z,6.90
2018-12-04T09:52:55.643Z,6.80
2018-12-04T09:55:24.252Z,6.80
2018-12-04T09:57:52.840Z,7.00
2018-12-04T10:00:21.430Z,7.00
2018-12-04T10:02:50.016Z,7.00
2018-12-04T10:05:21.584Z,7.20
2018-12-04T10:07:50.191Z,7.20
2018-12-04T10:10:18.830Z,7.30
2018-12-04T10:12:47.485Z,7.30
2018-12-04T10:15:16.312Z,7.30
2018-12-04T10:17:44.883Z,7.20
2018-12-04T10:20:14.144Z,7.10
2018-12-04T10:22:42.747Z,7.10
2018-12-04T10:25:11.345Z,7.10
2018-12-04T10:27:39.928Z,7.10
2018-12-04T10:30:10.094Z,7.20
2018-12-04T10:32:38.693Z,7.20
2018-12-04T10:35:07.635Z,7.20
2018-12-04T10:37:36.219Z,7.30
2018-12-04T10:40:06.430Z,7.40
2018-12-04T10:42:35.132Z,7.50
2018-12-04T10:45:04.007Z,7.60
2018-12-04T10:47:32.747Z,7.60
2018-12-04T10:50:01.335Z,7.60
2018-12-04T10:52:29.951Z,7.70
2018-12-04T10:54:58.581Z,7.70
2018-12-04T10:57:27.600Z,7.70
2018-12-04T10:59:56.355Z,7.60
2018-12-04T11:02:25.625Z,7.60
2018-12-04T11:04:54.237Z,7.70
2018-12-04T11:07:22.839Z,7.60
2018-12-04T11:09:51.696Z,7.60
2018-12-04T11:12:20.292Z,7.50
2018-12-04T11:14:48.904Z,7.60
2018-12-04T11:17:17.484Z,7.60
2018-12-04T11:19:46.088Z,7.60
2018-12-04T11:22:14.656Z,7.70
2018-12-04T11:24:43.265Z,7.60
2018-12-04T11:27:18.503Z,7.60
2018-12-04T11:29:47.131Z,7.50
2018-12-04T11:32:15.707Z,7.50
2018-12-04T11:34:44.335Z,7.60
2018-12-04T11:37:12.938Z,7.50
2018-12-04T11:39:41.546Z,7.40
2018-12-04T11:42:10.112Z,7.40
2018-12-04T11:44:38.703Z,7.50
2018-12-04T11:47:07.288Z,7.40
2018-12-04T11:49:36.975Z,7.40
2018-12-04T11:52:05.765Z,7.40
2018-12-04T11:54:34.515Z,7.50
2018-12-04T11:57:03.533Z,7.50
2018-12-04T11:59:32.192Z,7.40
2018-12-04T12:02:00.807Z,7.40
2018-12-04T12:04:29.404Z,7.30
2018-12-04T12:06:57.999Z,7.30
2018-12-04T12:09:27.632Z,7.20
2018-12-04T12:11:56.211Z,7.20
2018-12-04T12:14:24.835Z,7.20
2018-12-04T12:16:53.412Z,7.00
2018-12-04T12:19:21.994Z,7.00
2018-12-04T12:21:50.563Z,6.90
2018-12-04T12:24:19.156Z,6.90
2018-12-04T12:26:47.737Z,6.90
2018-12-04T12:29:16.338Z,6.80
2018-12-04T12:31:44.955Z,6.80
2018-12-04T12:34:13.551Z,6.70
2018-12-04T12:36:42.175Z,6.80
2018-12-04T12:39:10.785Z,6.90
2018-12-04T12:41:39.372Z,6.90
2018-12-04T12:44:08.100Z,7.00
2018-12-04T12:46:38.924Z,7.00
2018-12-04T12:49:09.170Z,7.00
2018-12-04T12:51:37.875Z,7.00
2018-12-04T12:54:06.483Z,6.90
2018-12-04T12:56:35.733Z,6.90
2018-12-04T12:59:05.449Z,6.80
2018-12-04T13:01:34.157Z,6.80
2018-12-04T13:04:02.948Z,6.80
2018-12-04T13:06:31.547Z,6.80
2018-12-04T13:09:00.125Z,6.80
2018-12-04T13:11:28.743Z,6.80
2018-12-04T13:13:57.353Z,6.80
2018-12-04T13:16:25.943Z,6.80
2018-12-04T13:18:54.543Z,6.80
2018-12-04T13:21:23.121Z,6.80
2018-12-04T13:23:51.728Z,6.90
2018-12-04T13:26:20.366Z,6.90
2018-12-04T13:28:55.444Z,6.90
2018-12-04T13:31:24.899Z,6.90
2018-12-04T13:33:53.632Z,6.80
2018-12-04T13:36:22.229Z,6.90
2018-12-04T13:38:50.823Z,6.90
2018-12-04T13:41:19.378Z,6.90
2018-12-04T13:43:47.969Z,6.90
2018-12-04T13:46:16.545Z,7.00
2018-12-04T13:48:45.137Z,7.00
2018-12-04T13:51:13.701Z,6.90
2018-12-04T13:53:42.320Z,6.90
2018-12-04T13:56:10.896Z,6.90
2018-12-04T13:58:39.519Z,6.90
2018-12-04T14:01:08.249Z,6.90
2018-12-04T14:03:36.855Z,6.90
2018-12-04T14:06:05.479Z,6.90
2018-12-04T14:08:34.118Z,6.90
2018-12-04T14:11:02.783Z,6.90
2018-12-04T14:13:31.402Z,6.90
2018-12-04T14:16:00.098Z,6.90
2018-12-04T14:18:28.696Z,6.90
2018-12-04T14:20:57.281Z,6.80
2018-12-04T14:23:26.013Z,6.80
2018-12-04T14:25:54.603Z,6.90
2018-12-04T14:28:23.193Z,6.80
2018-12-04T14:30:51.803Z,6.80
2018-12-04T14:33:20.399Z,6.80
2018-12-04T14:35:48.982Z,6.80
2018-12-04T14:38:17.591Z,6.80
2018-12-04T14:40:46.219Z,6.80
2018-12-04T14:43:14.859Z,6.80
2018-12-04T14:45:43.559Z,6.80
2018-12-04T14:48:12.200Z,6.90
2018-12-04T14:50:40.859Z,6.80
2018-12-04T14:53:09.545Z,6.70
2018-12-04T14:55:38.144Z,6.50
2018-12-04T14:58:06.738Z,6.30
2018-12-04T15:00:35.443Z,6.30
2018-12-04T15:03:04.086Z,6.20
2018-12-04T15:05:32.777Z,6.10
2018-12-04T15:08:01.768Z,6.00
2018-12-04T15:10:30.374Z,5.90
2018-12-04T15:12:58.962Z,5.70
2018-12-04T15:15:27.584Z,5.60
2018-12-04T15:17:56.269Z,5.50
2018-12-04T15:20:24.899Z,5.40
2018-12-04T15:22:53.577Z,5.50
2018-12-04T15:25:22.197Z,5.40
2018-12-04T15:27:50.896Z,5.40
2018-12-04T15:30:19.464Z,5.40
2018-12-04T15:32:48.203Z,5.40
2018-12-04T15:35:16.836Z,5.40
2018-12-04T15:37:45.629Z,5.40
2018-12-04T15:40:14.221Z,5.40
2018-12-04T15:42:43.065Z,5.40
2018-12-04T15:45:11.660Z,5.40
2018-12-04T15:47:40.357Z,5.30
2018-12-04T15:50:09.374Z,5.20
2018-12-04T15:52:38.044Z,5.10
2018-12-04T15:55:06.875Z,5.10
2018-12-04T15:57:35.484Z,5.10
2018-12-04T16:00:06.216Z,5.00
2018-12-04T16:02:34.844Z,4.90
2018-12-04T16:05:04.056Z,4.80
2018-12-04T16:07:33.724Z,4.70
2018-12-04T16:10:02.324Z,4.70
2018-12-04T16:12:30.943Z,4.60
2018-12-04T16:14:59.528Z,4.50
2018-12-04T16:17:28.156Z,4.50
2018-12-04T16:19:56.745Z,4.40
2018-12-04T16:22:25.363Z,4.40
2018-12-04T16:24:53.984Z,4.50
2018-12-04T16:27:22.579Z,4.50
2018-12-04T16:29:51.155Z,4.50
2018-12-04T16:32:19.913Z,4.40
2018-12-04T16:34:48.554Z,4.40
2018-12-04T16:37:17.163Z,4.30
2018-12-04T16:39:45.731Z,4.20
2018-12-04T16:42:14.341Z,4.10
2018-12-04T16:44:42.926Z,4.00
2018-12-04T16:47:11.537Z,3.90
2018-12-04T16:49:40.105Z,3.80
2018-12-04T16:52:08.716Z,3.70
2018-12-04T16:54:37.295Z,3.60
2018-12-04T16:57:05.915Z,3.50
2018-12-04T16:59:34.535Z,3.40
2018-12-04T17:02:04.295Z,3.60
2018-12-04T17:04:32.889Z,3.60
2018-12-04T17:07:01.970Z,3.50
2018-12-04T17:09:30.617Z,3.40
2018-12-04T17:11:59.263Z,3.30
2018-12-04T17:14:27.906Z,3.20
2018-12-04T17:16:56.529Z,3.20
2018-12-04T17:19:25.109Z,3.10
2018-12-04T17:21:53.715Z,3.00
2018-12-04T17:24:22.280Z,3.00
2018-12-04T17:26:50.989Z,3.00
2018-12-04T17:29:19.583Z,3.00
2018-12-04T17:31:48.240Z,3.10
2018-12-04T17:34:16.868Z,3.20
2018-12-04T17:36:45.480Z,3.10
2018-12-04T17:39:14.115Z,3.00
2018-12-04T17:41:42.753Z,3.00
2018-12-04T17:44:11.404Z,3.10
2018-12-04T17:46:40.045Z,3.20
2018-12-04T17:49:08.703Z,3.20
2018-12-04T17:51:37.351Z,3.20
2018-12-04T17:54:11.291Z,3.00
2018-12-04T17:56:39.911Z,2.90
2018-12-04T17:59:08.571Z,2.80
2018-12-04T18:01:37.215Z,2.70
2018-12-04T18:04:05.820Z,2.60
2018-12-04T18:06:34.444Z,2.50
2018-12-04T18:09:05.707Z,2.40
2018-12-04T18:11:34.443Z,2.30
2018-12-04T18:14:03.211Z,2.30
2018-12-04T18:16:31.904Z,2.20
2018-12-04T18:19:00.608Z,2.10
2018-12-04T18:21:29.220Z,2.00
2018-12-04T18:23:57.829Z,2.00
2018-12-04T18:26:26.420Z,1.90
2018-12-04T18:28:55.021Z,1.80
2018-12-04T18:31:24.373Z,1.70
2018-12-04T18:33:53.080Z,1.70
2018-12-04T18:36:21.724Z,1.70
2018-12-04T18:38:50.312Z,1.60
2018-12-04T18:41:18.945Z,1.60
2018-12-04T18:43:47.531Z,1.50
2018-12-04T18:46:16.540Z,1.50
2018-12-04T18:48:45.286Z,1.40
2018-12-04T18:51:13.900Z,1.40
2018-12-04T18:53:42.494Z,1.40
2018-12-04T18:56:11.560Z,1.30
2018-12-04T18:58:40.146Z,1.20
2018-12-04T19:01:08.773Z,1.20
2018-12-04T19:03:37.431Z,1.10
2018-12-04T19:06:06.174Z,1.10
2018-12-04T19:08:39.962Z,1.10
2018-12-04T19:11:08.736Z,1.10
2018-12-04T19:13:37.328Z,1.00
2018-12-04T19:16:06.072Z,0.90
2018-12-04T19:18:34.715Z,0.90
2018-12-04T19:21:03.913Z,0.90
2018-12-04T19:23:32.522Z,0.80
2018-12-04T19:26:01.139Z,0.80
2018-12-04T19:28:29.724Z,0.80
2018-12-04T19:31:02.668Z,0.80
2018-12-04T19:33:29.051Z,0.70
2018-12-04T19:35:57.715Z,0.70
2018-12-04T19:38:26.314Z,0.70
2018-12-04T19:40:55.636Z,0.70
2018-12-04T19:43:24.384Z,0.80
2018-12-04T19:45:53.003Z,0.80
2018-12-04T19:48:21.609Z,0.70
2018-12-04T19:50:50.267Z,0.70
2018-12-04T19:53:18.889Z,0.60
2018-12-04T19:55:48.253Z,0.50
2018-12-04T19:58:16.823Z,0.50
2018-12-04T20:00:45.459Z,0.50
2018-12-04T20:03:14.071Z,0.50
2018-12-04T20:05:44.171Z,0.40
2018-12-04T20:08:14.338Z,0.40
2018-12-04T20:10:43.016Z,0.40
2018-12-04T20:13:11.613Z,0.30
2018-12-04T20:15:40.215Z,0.40
2018-12-04T20:18:08.840Z,0.30
2018-12-04T20:20:37.573Z,0.30
2018-12-04T20:23:06.159Z,0.40
2018-12-04T20:25:34.770Z,0.40
2018-12-04T20:28:04.832Z,0.30
2018-12-04T20:30:33.670Z,0.30
2018-12-04T20:33:02.812Z,0.20
2018-12-04T20:35:31.396Z,0.10
2018-12-04T20:38:00.107Z,0.10
2018-12-04T20:40:31.675Z,0.00
2018-12-04T20:42:59.375Z,0.00
2018-12-04T20:45:27.968Z,0.00
2018-12-04T20:47:56.592Z,-0.10
2018-12-04T20:50:25.208Z,-0.10
2018-12-04T20:52:53.821Z,-0.20
2018-12-04T20:55:22.431Z,-0.10
2018-12-04T20:57:51.072Z,-0.20
2018-12-04T21:00:19.676Z,-0.20
2018-12-04T21:02:48.254Z,-0.30
2018-12-04T21:05:16.922Z,-0.20
2018-12-04T21:07:45.524Z,-0.30
2018-12-04T21:10:14.140Z,-0.30
2018-12-04T21:12:42.738Z,-0.40
2018-12-04T21:15:11.483Z,-0.40
2018-12-04T21:17:40.082Z,-0.40
2018-12-04T21:20:08.711Z,-0.50
2018-12-04T21:22:37.297Z,-0.50
2018-12-04T21:25:06.176Z,-0.60
2018-12-04T21:27:40.120Z,-0.60
2018-12-04T21:30:15.733Z,-0.60
2018-12-04T21:32:49.869Z,-0.60
2018-12-04T21:35:23.952Z,-0.70
2018-12-04T21:37:57.699Z,-0.70
2018-12-04T21:40:31.662Z,-0.70
2018-12-04T21:43:05.956Z,-0.80
2018-12-04T21:45:40.154Z,-0.80
2018-12-04T21:48:11.070Z,-0.80
2018-12-04T21:50:41.214Z,-0.80
2018-12-04T21:53:10.318Z,-0.90
2018-12-04T21:55:39.442Z,-0.90
2018-12-04T21:58:08.512Z,-1.00
2018-12-04T22:00:37.612Z,-1.00
2018-12-04T22:03:06.814Z,-1.00
2018-12-04T22:05:35.929Z,-1.10
2018-12-04T22:08:05.812Z,-1.10
2018-12-04T22:10:35.871Z,-1.10
2018-12-04T22:13:05.807Z,-1.00
2018-12-04T22:15:35.199Z,-1.10
2018-12-04T22:18:04.178Z,-1.10
2018-12-04T22:20:33.661Z,-1.10
2018-12-04T22:23:02.255Z,-1.10
2018-12-04T22:25:30.889Z,-1.20
2018-12-04T22:27:59.469Z,-1.20
2018-12-04T22:30:28.084Z,-1.20
2018-12-04T22:32:56.672Z,-1.20
2018-12-04T22:35:25.308Z,-1.20
2018-12-04T22:37:53.889Z,-1.20
2018-12-04T22:40:22.503Z,-1.20
2018-12-04T22:42:51.092Z,-1.20
2018-12-04T22:45:25.941Z,-1.20
2018-12-04T22:47:55.647Z,-1.20
2018-12-04T22:50:24.281Z,-1.30
2018-12-04T22:52:52.898Z,-1.30
2018-12-04T22:55:21.523Z,-1.40
2018-12-04T22:57:50.092Z,-1.40
2018-12-04T23:00:29.789Z,-1.40
2018-12-04T23:02:58.405Z,-1.40
2018-12-04T23:05:27.039Z,-1.40
2018-12-04T23:07:55.624Z,-1.50
2018-12-04T23:10:24.266Z,-1.50
2018-12-04T23:12:52.872Z,-1.50
2018-12-04T23:15:21.748Z,-1.50
2018-12-04T23:17:50.594Z,-1.50
2018-12-04T23:20:25.484Z,-1.50
2018-12-04T23:22:54.087Z,-1.50
2018-12-04T23:25:23.604Z,-1.50
2018-12-04T23:27:52.205Z,-1.50
2018-12-04T23:30:27.107Z,-1.50
2018-12-04T23:32:55.740Z,-1.50
2018-12-04T23:35:24.364Z,-1.50
2018-12-04T23:37:53.003Z,-1.60
2018-12-04T23:40:21.620Z,-1.50
2018-12-04T23:42:50.225Z,-1.60
2018-12-04T23:45:18.840Z,-1.60
2018-12-04T23:47:47.437Z,-1.60
2018-12-04T23:50:16.056Z,-1.60
2018-12-04T23:52:44.655Z,-1.60
2018-12-04T23:55:13.285Z,-1.60
2018-12-04T23:57:49.853Z,-1.60
